createdAt,value
2023-03-21T00:04:26.023Z,98313.84
2023-03-21T00:09:28.393Z,98317.59
2023-03-21T00:14:31.074Z,98322.25
2023-03-21T00:19:33.095Z,98321.53
2023-03-21T00:24:36.085Z,98321.22
2023-03-21T00:29:38.030Z,98329.84
2023-03-21T00:34:43.278Z,98323.66
2023-03-21T00:39:50.956Z,98322.53
2023-03-21T00:44:53.985Z,98331.84
2023-03-21T00:49:56.117Z,98324.00
2023-03-21T00:54:58.113Z,98318.13
2023-03-21T00:59:59.909Z,98316.91
2023-03-21T01:05:01.870Z,98308.06
2023-03-21T01:10:04.209Z,98309.22
2023-03-21T01:15:07.289Z,98300.56
2023-03-21T01:20:10.892Z,98317.09
2023-03-21T01:25:22.458Z,98319.72
2023-03-21T01:30:28.691Z,98321.72
2023-03-21T01:35:41.023Z,98323.66
2023-03-21T01:40:51.422Z,98322.59
2023-03-21T01:46:25.486Z,98319.88
2023-03-21T01:51:44.205Z,98319.16
2023-03-21T01:56:48.003Z,98317.38
2023-03-21T02:01:52.747Z,98313.84
2023-03-21T02:07:13.890Z,98310.44
2023-03-21T02:12:21.139Z,98300.03
2023-03-21T02:17:46.577Z,98296.16
2023-03-21T02:23:02.932Z,98290.75
2023-03-21T02:28:23.007Z,98295.22
2023-03-21T02:33:56.086Z,98287.50
2023-03-21T02:39:14.182Z,98290.91
2023-03-21T02:44:44.453Z,98285.97
2023-03-21T02:49:49.699Z,98291.41
2023-03-21T02:54:52.383Z,98285.78
2023-03-21T03:00:10.697Z,98287.91
2023-03-21T03:05:21.878Z,98284.84
2023-03-21T03:10:43.880Z,98295.50
2023-03-21T03:16:10.225Z,98280.63
2023-03-21T03:21:19.787Z,98279.25
2023-03-21T03:26:34.873Z,98272.69
2023-03-21T03:31:41.833Z,98272.88
2023-03-21T03:36:47.802Z,98271.50
2023-03-21T03:42:28.088Z,98283.91
2023-03-21T03:47:56.416Z,98285.28
2023-03-21T03:53:25.191Z,98279.44
2023-03-21T03:58:44.525Z,98287.09
2023-03-21T04:03:54.587Z,98282.50
2023-03-21T04:09:00.139Z,98290.97
2023-03-21T04:14:05.056Z,98288.06
2023-03-21T04:19:09.707Z,98295.47
2023-03-21T04:24:13.896Z,98284.28
2023-03-21T04:29:18.040Z,98286.44
2023-03-21T04:34:40.341Z,98284.44
2023-03-21T04:39:43.055Z,98279.25
2023-03-21T04:44:46.379Z,98282.91
2023-03-21T04:49:48.259Z,98284.53
2023-03-21T04:54:50.155Z,98287.69
2023-03-21T04:59:53.422Z,98281.41
2023-03-21T05:04:57.570Z,98290.41
2023-03-21T05:10:01.329Z,98281.94
2023-03-21T05:15:05.722Z,98288.38
2023-03-21T05:20:09.824Z,98290.78
2023-03-21T05:25:13.254Z,98283.91
2023-03-21T05:30:36.943Z,98291.09
2023-03-21T05:35:40.283Z,98291.53
2023-03-21T05:40:49.961Z,98297.16
2023-03-21T05:45:53.003Z,98295.38
2023-03-21T05:50:55.910Z,98295.19
2023-03-21T05:55:58.758Z,98295.63
2023-03-21T06:01:16.409Z,98293.16
2023-03-21T06:06:25.858Z,98290.72
2023-03-21T06:11:36.855Z,98295.84
2023-03-21T06:17:02.250Z,98308.25
2023-03-21T06:22:06.116Z,98309.81
2023-03-21T06:27:10.547Z,98309.16
2023-03-21T06:32:32.582Z,98303.31
2023-03-21T06:37:43.534Z,98312.75
2023-03-21T06:42:45.897Z,98313.44
2023-03-21T06:47:49.858Z,98322.91
2023-03-21T06:53:11.908Z,98323.56
2023-03-21T06:58:34.066Z,98326.56
2023-03-21T07:03:37.870Z,98328.94
2023-03-21T07:08:41.533Z,98331.75
2023-03-21T07:13:43.913Z,98330.22
2023-03-21T07:18:46.679Z,98333.41
2023-03-21T07:23:50.740Z,98329.47
2023-03-21T07:28:52.576Z,98330.69
2023-03-21T07:33:54.387Z,98336.22
2023-03-21T07:38:57.578Z,98341.06
2023-03-21T07:43:59.500Z,98337.22
2023-03-21T07:49:09.019Z,98335.16
2023-03-21T07:54:10.916Z,98342.19
2023-03-21T07:59:12.673Z,98343.97
2023-03-21T08:04:14.754Z,98331.94
2023-03-21T08:09:16.712Z,98338.88
2023-03-21T08:14:18.542Z,98334.09
2023-03-21T08:19:21.872Z,98335.31
2023-03-21T08:24:24.138Z,98329.66
2023-03-21T08:29:26.198Z,98332.72
2023-03-21T08:34:28.006Z,98338.69
2023-03-21T08:39:29.854Z,98331.59
2023-03-21T08:44:31.626Z,98333.63
2023-03-21T08:49:34.819Z,98328.06
2023-03-21T08:54:36.634Z,98327.09
2023-03-21T08:59:38.758Z,98337.88
2023-03-21T09:04:41.192Z,98331.75
2023-03-21T09:09:43.696Z,98320.69
2023-03-21T09:14:45.594Z,98317.06
2023-03-21T09:19:47.423Z,98315.22
2023-03-21T09:24:50.303Z,98321.03
2023-03-21T09:29:52.715Z,98312.13
2023-03-21T09:34:55.673Z,98311.38
2023-03-21T09:39:58.371Z,98316.50
2023-03-21T09:45:10.789Z,98304.78
2023-03-21T09:50:32.069Z,98308.59
2023-03-21T09:55:36.653Z,98301.94
2023-03-21T10:00:43.353Z,98308.13
2023-03-21T10:05:46.963Z,98306.34
2023-03-21T10:10:52.016Z,98290.44
2023-03-21T10:16:21.422Z,98286.56
2023-03-21T10:21:56.645Z,98287.47
2023-03-21T10:26:50.596Z,98275.00
2023-03-21T10:31:53.638Z,98277.97
2023-03-21T10:36:55.445Z,98270.94
2023-03-21T10:41:57.271Z,98277.97
2023-03-21T10:47:07.970Z,98268.78
2023-03-21T10:52:12.693Z,98266.63
2023-03-21T10:57:22.332Z,98262.50
2023-03-21T11:02:37.179Z,98260.03
2023-03-21T11:07:39.185Z,98258.28
2023-03-21T11:12:46.651Z,98258.53
2023-03-21T11:17:48.464Z,98260.22
2023-03-21T11:22:55.400Z,98251.78
2023-03-21T11:27:57.404Z,98246.31
2023-03-21T11:33:03.743Z,98239.81
2023-03-21T11:38:23.525Z,98233.59
2023-03-21T11:43:27.094Z,98225.84
2023-03-21T11:48:29.830Z,98226.72
2023-03-21T11:53:46.712Z,98213.47
2023-03-21T11:59:06.995Z,98210.38
2023-03-21T12:04:15.248Z,98201.47
2023-03-21T12:09:42.033Z,98196.88
2023-03-21T12:15:14.467Z,98191.06
2023-03-21T12:20:40.355Z,98185.22
2023-03-21T12:25:54.892Z,98184.81
2023-03-21T12:31:29.905Z,98178.44
2023-03-21T12:37:09.227Z,98167.41
2023-03-21T12:42:13.753Z,98165.06
2023-03-21T12:47:24.421Z,98162.94
2023-03-21T12:52:34.127Z,98146.63
2023-03-21T12:57:51.144Z,98147.81
2023-03-21T13:03:46.601Z,98140.41
2023-03-21T13:08:58.797Z,98135.66
2023-03-21T13:14:25.425Z,98123.19
2023-03-21T13:19:44.815Z,98117.72
2023-03-21T13:24:48.821Z,98118.53
2023-03-21T13:29:53.784Z,98103.69
2023-03-21T13:34:58.179Z,98113.06
2023-03-21T13:40:19.566Z,98103.69
2023-03-21T13:45:29.804Z,98102.13
2023-03-21T13:50:52.201Z,98100.56
2023-03-21T13:56:11.964Z,98094.31
2023-03-21T14:01:28.226Z,98080.22
2023-03-21T14:06:55.096Z,98084.91
2023-03-21T14:12:03.866Z,98081.81
2023-03-21T14:17:22.916Z,98072.41
2023-03-21T14:22:24.796Z,98071.63
2023-03-21T14:27:30.954Z,98054.03
2023-03-21T14:32:32.879Z,98059.16
2023-03-21T14:37:41.673Z,98051.31
2023-03-21T14:42:48.115Z,98051.31
2023-03-21T14:48:12.756Z,98041.13
2023-03-21T14:53:20.094Z,98036.88
2023-03-21T14:58:21.969Z,98037.69
2023-03-21T15:03:26.986Z,98036.88
2023-03-21T15:08:29.299Z,98022.06
2023-03-21T15:13:46.122Z,98024.81
2023-03-21T15:18:48.501Z,98020.53
2023-03-21T15:23:55.896Z,98013.09
2023-03-21T15:28:59.576Z,98009.22
2023-03-21T15:34:01.923Z,98010.41
2023-03-21T15:39:08.957Z,98008.03
2023-03-21T15:44:15.172Z,98004.53
2023-03-21T15:49:16.961Z,98004.53
2023-03-21T15:54:26.561Z,98000.63
2023-03-21T15:59:33.173Z,97993.63
2023-03-21T16:05:14.767Z,97994.38
2023-03-21T16:10:27.368Z,97988.13
2023-03-21T16:15:29.914Z,97995.19
2023-03-21T16:20:37.987Z,97987.00
2023-03-21T16:25:41.045Z,97979.97
2023-03-21T16:30:43.206Z,97996.72
2023-03-21T16:35:45.133Z,98003.38
2023-03-21T16:40:47.111Z,97994.41
2023-03-21T16:45:49.031Z,97986.97
2023-03-21T16:50:50.926Z,97997.94
2023-03-21T16:55:54.099Z,97995.97
2023-03-21T17:00:56.335Z,98004.53
2023-03-21T17:05:58.149Z,97995.97
2023-03-21T17:11:00.116Z,98001.44
2023-03-21T17:16:02.059Z,97996.75
2023-03-21T17:21:12.319Z,97981.91
2023-03-21T17:26:18.392Z,97983.88
2023-03-21T17:31:23.949Z,97991.28
2023-03-21T17:36:32.205Z,97981.88
2023-03-21T17:41:34.129Z,97985.78
2023-03-21T17:46:37.355Z,97990.47
2023-03-21T17:51:39.737Z,97989.66
2023-03-21T17:56:42.241Z,97986.56
2023-03-21T18:01:44.123Z,97984.22
2023-03-21T18:06:46.088Z,97980.72
2023-03-21T18:11:47.980Z,97977.19
2023-03-21T18:16:50.746Z,97977.97
2023-03-21T18:21:52.573Z,97981.84
2023-03-21T18:26:54.587Z,97974.06
2023-03-21T18:32:06.975Z,97974.06
2023-03-21T18:37:13.138Z,97972.47
2023-03-21T18:42:19.133Z,97976.00
2023-03-21T18:47:22.552Z,97974.03
2023-03-21T18:52:26.413Z,97973.22
2023-03-21T18:57:36.459Z,97979.09
2023-03-21T19:02:47.123Z,97970.50
2023-03-21T19:07:49.846Z,97977.84
2023-03-21T19:12:54.689Z,97975.84
2023-03-21T19:18:30.630Z,97979.34
2023-03-21T19:23:18.840Z,97976.63
2023-03-21T19:28:20.958Z,97979.34
2023-03-21T19:33:24.526Z,97984.06
2023-03-21T19:38:26.524Z,97993.03
2023-03-21T19:43:33.049Z,97986.38
2023-03-21T19:48:38.112Z,97985.59
2023-03-21T19:53:40.546Z,97980.09
2023-03-21T19:58:42.591Z,97985.53
2023-03-21T20:03:44.687Z,97985.53
2023-03-21T20:14:09.218Z,97990.22
2023-03-21T20:19:13.472Z,97983.97
2023-03-21T20:24:16.936Z,97991.00
2023-03-21T20:34:40.680Z,97989.03
2023-03-21T20:39:42.752Z,97988.22
2023-03-21T20:44:57.730Z,97976.94
2023-03-21T20:50:00.422Z,97987.06
2023-03-21T20:55:03.078Z,97993.31
2023-03-21T21:00:13.617Z,97983.88
2023-03-21T21:05:28.728Z,97985.44
2023-03-21T21:10:33.565Z,97988.50
2023-03-21T21:15:37.507Z,97991.59
2023-03-21T21:20:40.315Z,97986.91
2023-03-21T21:25:42.221Z,97997.75
2023-03-21T21:30:44.050Z,98003.25
2023-03-21T21:35:48.088Z,98002.47
2023-03-21T21:40:52.094Z,97996.22
2023-03-21T21:45:54.058Z,98000.91
2023-03-21T21:50:55.888Z,98007.91
2023-03-21T21:55:57.726Z,98013.00
2023-03-21T22:01:01.942Z,98002.84
2023-03-21T22:06:07.365Z,98009.44
2023-03-21T22:11:09.104Z,98019.53
2023-03-21T22:16:12.131Z,98010.13
2023-03-21T22:21:14.016Z,98020.16
2023-03-21T22:26:15.861Z,98035.47
2023-03-21T22:31:17.970Z,98030.22
2023-03-21T22:36:20.336Z,98035.84
2023-03-21T22:41:22.151Z,98021.78
2023-03-21T22:46:24.035Z,98020.81
2023-03-21T22:51:26.024Z,98016.09
2023-03-21T22:56:27.818Z,98024.22
2023-03-21T23:01:29.693Z,98016.41
2023-03-21T23:06:31.905Z,98013.34
2023-03-21T23:11:33.908Z,98005.97
2023-03-21T23:16:38.638Z,97997.03
2023-03-21T23:21:40.615Z,97994.81
2023-03-21T23:26:42.788Z,97994.91
2023-03-21T23:31:44.657Z,97995.31
2023-03-21T23:36:46.502Z,97986.75
2023-03-21T23:41:48.259Z,97986.81
2023-03-21T23:46:50.057Z,97983.56
2023-03-21T23:51:51.975Z,97998.44
2023-03-21T23:56:53.733Z,98004.75
